ADDS METAR Data INFO
IDs: Format: Raw Decoded Include TAF

Data at: 2331 UTC 19 Oct 2017

KRBO 192315Z AUTO 08018G21KT 10SM BKN044 BKN050 OVC070 26/19 A3002 RMK AO2 T02550185
KRBO 192255Z AUTO 10012KT 10SM OVC048 26/19 A3002 RMK AO2 T02600190
KRBO 192235Z AUTO 09016KT 10SM OVC050 26/20 A3002 RMK AO2 T02630196
KRBO 192215Z AUTO 09015G19KT 10SM OVC050 27/19 A3002 RMK AO2 T02680190
KRBO 192155Z AUTO 09015KT 10SM SCT027 SCT033 OVC055 27/19 A3002 RMK AO2 T02710185
KRBO 192135Z AUTO 08017G21KT 10SM SCT028 BKN046 OVC065 28/20 A3002 RMK AO2 T02770202
KRBO 192115Z AUTO 07011KT 10SM SCT041 OVC065 29/19 A3002 RMK AO2 T02850189
KRBO 192055Z AUTO 07012G16KT 10SM SCT050 OVC070 29/18 A3001 RMK AO2 T02860181
KRBO 192035Z AUTO 08012G16KT 10SM BKN050 OVC070 29/17 A3002 RMK AO2 T02890165
KRBO 192015Z AUTO 08012KT 10SM OVC050 29/17 A3002 RMK AO2 T02880169
KRBO 191955Z AUTO 09014G17KT 10SM OVC050 29/18 A3002 RMK AO2 T02850183
KRBO 191935Z AUTO 08012G16KT 10SM OVC050 29/18 A3003 RMK AO2 T02870182
KRBO 191915Z AUTO 06011G15KT 10SM SCT042 BKN050 OVC070 29/19 A3003 RMK AO2 T02860187
KRBO 191855Z AUTO 07010G14KT 10SM BKN045 BKN055 OVC075 29/19 A3005 RMK AO2 T02850190
KRBO 191835Z AUTO 07009KT 10SM SCT035 BKN043 OVC050 28/19 A3006 RMK AO2 T02810192
KRBO 191815Z AUTO 06007KT 10SM SCT031 BKN039 OVC048 28/20 A3007 RMK AO2 T02780199
KRBO 191755Z AUTO 09009G14KT 10SM SCT031 BKN042 OVC070 27/20 A3008 RMK AO2 T02720199 10275 20160
KRBO 191735Z AUTO 08007KT 10SM SCT044 OVC060 27/20 A3008 RMK AO2 T02720200
KRBO 191715Z AUTO 09007KT 10SM BKN045 BKN050 OVC060 27/20 A3009 RMK AO2 T02700200
KRBO 191655Z AUTO 09011G14KT 10SM SCT027 SCT033 OVC060 27/20 A3010 RMK AO2 T02700200
KRBO 191635Z AUTO 04005KT 10SM SCT027 SCT032 OVC060 27/20 A3010 RMK AO2 T02690203
KRBO 191615Z AUTO 04005KT 10SM BKN060 27/20 A3010 RMK AO2 T02700202
KRBO 191555Z AUTO 04006KT 10SM SCT060 27/21 A3010 RMK AO2 T02650205
KRBO 191535Z AUTO 04004KT 10SM CLR 26/20 A3009 RMK AO2 T02560202
KRBO 191515Z AUTO 04005KT 10SM SCT030 SCT040 24/20 A3009 RMK AO2 T02420197
KRBO 191435Z AUTO 03004KT 10SM CLR 23/20 A3009 RMK AO2 T02290195
KRBO 191415Z AUTO 02005KT 10SM CLR 22/19 A3008 RMK AO2 T02150188
KRBO 191355Z AUTO 01004KT 10SM CLR 20/18 A3008 RMK AO2 T01990181
KRBO 191335Z AUTO 01003KT 10SM CLR 18/17 A3007 RMK AO2 T01800169
KRBO 191315Z AUTO 36003KT 10SM CLR 17/16 A3007 RMK AO2 T01700162
KRBO 191255Z AUTO 35005KT 10SM CLR 17/16 A3006 RMK AO2 T01650158
KRBO 191235Z AUTO 35004KT 10SM CLR 16/16 A3006 RMK AO2 T01620155
KRBO 191215Z AUTO 35004KT 10SM CLR 16/15 A3006 RMK AO2 T01600153
KRBO 191155Z AUTO 36003KT 10SM CLR 16/15 A3005 RMK AO2 T01610152 10202 20160
KRBO 191135Z AUTO 36003KT 10SM CLR 16/15 A3005 RMK AO2 T01600152
KRBO 191115Z AUTO 35004KT 10SM CLR 17/16 A3006 RMK AO2 T01650155
KRBO 191055Z AUTO 34005KT 10SM CLR 17/16 A3005 RMK AO2 T01650156
KRBO 191035Z AUTO 00000KT 10SM CLR 17/16 A3005 RMK AO2 T01650155
KRBO 191015Z AUTO 02003KT 10SM CLR 17/16 A3005 RMK AO2 T01660155
KRBO 190955Z AUTO 36005KT 10SM CLR 17/16 A3005 RMK AO2 T01690155
KRBO 190935Z AUTO 36003KT 10SM CLR 17/16 A3005 RMK AO2 T01710157
KRBO 190915Z AUTO 01004KT 10SM CLR 17/16 A3005 RMK AO2 T01730160
KRBO 190855Z AUTO 02003KT 10SM CLR 17/16 A3006 RMK AO2 T01720157
KRBO 190835Z AUTO 02003KT 10SM CLR 18/16 A3007 RMK AO2 T01750160
KRBO 190815Z AUTO 02003KT 10SM CLR 18/16 A3007 RMK AO2 T01760160
KRBO 190755Z AUTO 00000KT 10SM SCT033 18/16 A3007 RMK AO2 T01820162
KRBO 190735Z AUTO 00000KT 10SM SCT033 18/16 A3008 RMK AO2 T01810161
KRBO 190715Z AUTO 00000KT 10SM CLR 18/16 A3008 RMK AO2 T01810160
KRBO 190655Z AUTO 00000KT 10SM CLR 20/17 A3008 RMK AO2 T01950172
KRBO 190635Z AUTO 09003KT 10SM CLR 20/18 A3008 RMK AO2 T02010176
KRBO 190615Z AUTO 09003KT 10SM SCT032 20/17 A3008 RMK AO2 T02000174
KRBO 190555Z AUTO 00000KT 10SM BKN032 20/17 A3009 RMK AO2 T02000170 10241 20192 402910110
KRBO 190535Z AUTO 00000KT 10SM BKN032 20/17 A3009 RMK AO2 T01980165
KRBO 190515Z AUTO 00000KT 10SM BKN030 20/16 A3009 RMK AO2 T01970162
KRBO 190455Z AUTO 00000KT 10SM BKN030 19/16 A3010 RMK AO2 T01930161
KRBO 190435Z AUTO 00000KT 10SM BKN028 20/17 A3010 RMK AO2 T01970165
KRBO 190415Z AUTO 00000KT 10SM CLR 20/17 A3010 RMK AO2 T01950165
KRBO 190355Z AUTO 00000KT 10SM CLR 20/17 A3010 RMK AO2 T01970165
KRBO 190335Z AUTO 00000KT 10SM CLR 20/16 A3010 RMK AO2 T02020163
KRBO 190315Z AUTO 00000KT 10SM CLR 20/16 A3010 RMK AO2 T02000158
KRBO 190255Z AUTO 00000KT 10SM CLR 20/16 A3010 RMK AO2 T02000155
KRBO 190235Z AUTO 10003KT 10SM CLR 20/15 A3009 RMK AO2 T02030154
KRBO 190215Z AUTO 10004KT 10SM CLR 20/15 A3009 RMK AO2 T02040153
KRBO 190155Z AUTO 10005KT 10SM CLR 21/16 A3009 RMK AO2 T02070155
KRBO 190135Z AUTO 11004KT 10SM CLR 21/16 A3009 RMK AO2 T02110158
KRBO 190115Z AUTO 11006KT 10SM CLR 22/16 A3008 RMK AO2 T02210160
KRBO 190055Z AUTO 10007KT 10SM CLR 23/16 A3008 RMK AO2 T02270161
KRBO 190035Z AUTO 10008KT 10SM CLR 23/16 A3008 RMK AO2 T02300157
KRBO 190015Z AUTO 10008KT 10SM CLR 24/16 A3007 RMK AO2 T02350160
KRBO 182355Z AUTO 10009KT 10SM CLR 24/16 A3007 RMK AO2 T02410163 10291 20241
KRBO 182335Z AUTO 10011KT 10SM CLR 25/16 A3007 RMK AO2 T02490156
KRBO 182315Z AUTO 11010KT 10SM CLR 26/15 A3007 RMK AO2 T02560148
KRBO 182255Z AUTO 10011KT 10SM CLR 27/15 A3007 RMK AO2 T02660145
KRBO 182235Z AUTO 09011KT 10SM CLR 27/14 A3007 RMK AO2 T02720138
KRBO 182215Z AUTO 09009KT 10SM CLR 28/14 A3007 RMK AO2 T02760137
KRBO 182155Z AUTO 10005KT 10SM CLR 28/14 A3007 RMK AO2 T02790136
KRBO 182135Z AUTO 08010KT 10SM CLR 28/14 A3007 RMK AO2 T02830141
KRBO 182115Z AUTO 07009G14KT 10SM CLR 29/14 A3007 RMK AO2 T02860137
KRBO 182055Z AUTO 09010KT 10SM CLR 29/14 A3007 RMK AO2 T02900142
KRBO 182035Z AUTO 06009KT 10SM CLR 29/15 A3007 RMK AO2 T02850150
KRBO 182015Z AUTO 10006KT 10SM CLR 29/15 A3007 RMK AO2 T02860151
KRBO 181955Z AUTO 00000KT 10SM CLR 29/14 A3007 RMK AO2 T02860141
KRBO 181935Z AUTO 13006KT 10SM CLR 28/13 A3008 RMK AO2 T02820132
KRBO 181915Z AUTO 12005KT 10SM CLR 29/13 A3010 RMK AO2 T02890126
KRBO 181855Z AUTO 00000KT 10SM CLR 28/14 A3010 RMK AO2 T02770135
KRBO 181835Z AUTO 11005KT 10SM CLR 28/13 A3012 RMK AO2 T02750131
KRBO 181815Z AUTO 11005KT 10SM CLR 27/13 A3013 RMK AO2 T02730126
KRBO 181755Z AUTO 00000KT 10SM CLR 27/13 A3014 RMK AO2 T02690132 10271 20110
KRBO 181735Z AUTO 00000KT 10SM CLR 26/13 A3015 RMK AO2 T02600132
KRBO 181715Z AUTO 09006KT 10SM CLR 26/13 A3015 RMK AO2 T02570134
KRBO 181655Z AUTO 00000KT 10SM CLR 25/14 A3016 RMK AO2 T02520136
KRBO 181635Z AUTO 00000KT 10SM CLR 25/14 A3017 RMK AO2 T02480140
KRBO 181615Z AUTO 00000KT 10SM CLR 25/14 A3018 RMK AO2 T02450138
KRBO 181555Z AUTO 03003KT 10SM CLR 24/14 A3018 RMK AO2 T02390135
KRBO 181535Z AUTO 00000KT 10SM CLR 22/13 A3018 RMK AO2 T02230129
KRBO 181515Z AUTO 04003KT 10SM CLR 21/13 A3018 RMK AO2 T02100129
KRBO 181455Z AUTO 36003KT 10SM CLR 19/13 A3018 RMK AO2 T01930128
KRBO 181435Z AUTO 35004KT 10SM CLR 18/12 A3017 RMK AO2 T01780118
KRBO 181415Z AUTO 33004KT 10SM CLR 16/11 A3017 RMK AO2 T01610112
KRBO 181355Z AUTO 34003KT 10SM CLR 15/11 A3016 RMK AO2 T01460110
KRBO 181335Z AUTO 00000KT 10SM CLR 13/11 A3015 RMK AO2 T01320107
KRBO 181315Z AUTO 33003KT 10SM CLR 12/10 A3015 RMK AO2 T01210100
KRBO 181255Z AUTO 35004KT 10SM CLR 11/10 A3014 RMK AO2 T01140096
KRBO 181235Z AUTO 32004KT 10SM CLR 11/10 A3014 RMK AO2 T01130098
KRBO 181215Z AUTO 36004KT 10SM CLR 12/10 A3013 RMK AO2 T01160100
KRBO 181155Z AUTO 36004KT 10SM CLR 12/10 A3013 RMK AO2 T01160100 10143 20115
KRBO 181135Z AUTO 36005KT 10SM CLR 12/10 A3012 RMK AO2 T01200101